sensor_id;sensor_type;location;lat;lon;timestamp;temperature;humidity
814;DHT22;389;48.710;9.392;2023-09-19T00:01:07;18.40;99.90
814;DHT22;389;48.710;9.392;2023-09-19T00:03:34;18.40;99.90
814;DHT22;389;48.710;9.392;2023-09-19T00:06:03;18.40;99.90
814;DHT22;389;48.710;9.392;2023-09-19T00:08:28;18.40;99.90
814;DHT22;389;48.710;9.392;2023-09-19T00:10:55;18.40;99.90
814;DHT22;389;48.710;9.392;2023-09-19T00:13:20;18.40;99.90
814;DHT22;389;48.710;9.392;2023-09-19T00:15:47;18.30;99.90
814;DHT22;389;48.710;9.392;2023-09-19T00:18:17;18.40;99.90
814;DHT22;389;48.710;9.392;2023-09-19T00:20:44;18.30;99.90
814;DHT22;389;48.710;9.392;2023-09-19T00:23:13;18.20;99.90
814;DHT22;389;48.710;9.392;2023-09-19T00:25:39;18.20;99.90
814;DHT22;389;48.710;9.392;2023-09-19T00:28:05;18.20;99.90
814;DHT22;389;48.710;9.392;2023-09-19T00:30:35;18.20;99.90
814;DHT22;389;48.710;9.392;2023-09-19T00:33:01;18.20;99.90
814;DHT22;389;48.710;9.392;2023-09-19T00:35:31;18.20;99.90
814;DHT22;389;48.710;9.392;2023-09-19T00:37:56;18.10;99.90
814;DHT22;389;48.710;9.392;2023-09-19T00:40:22;18.20;99.90
814;DHT22;389;48.710;9.392;2023-09-19T00:42:49;18.20;99.90
814;DHT22;389;48.710;9.392;2023-09-19T00:45:17;18.20;99.90
814;DHT22;389;48.710;9.392;2023-09-19T00:47:48;18.30;99.90
814;DHT22;389;48.710;9.392;2023-09-19T00:50:22;18.20;99.90
814;DHT22;389;48.710;9.392;2023-09-19T00:52:49;18.20;99.90
814;DHT22;389;48.710;9.392;2023-09-19T00:55:16;18.20;99.90
814;DHT22;389;48.710;9.392;2023-09-19T00:57:45;18.30;99.90
814;DHT22;389;48.710;9.392;2023-09-19T01:00:11;18.20;99.90
814;DHT22;389;48.710;9.392;2023-09-19T01:02:42;18.20;99.90
814;DHT22;389;48.710;9.392;2023-09-19T01:05:11;18.20;99.90
814;DHT22;389;48.710;9.392;2023-09-19T01:07:41;18.30;99.90
814;DHT22;389;48.710;9.392;2023-09-19T01:10:12;18.30;99.90
814;DHT22;389;48.710;9.392;2023-09-19T01:18:16;18.20;99.90
814;DHT22;389;48.710;9.392;2023-09-19T01:29:33;18.10;99.90
814;DHT22;389;48.710;9.392;2023-09-19T01:32:04;18.10;99.90
814;DHT22;389;48.710;9.392;2023-09-19T01:34:56;18.20;99.90
814;DHT22;389;48.710;9.392;2023-09-19T01:37:30;18.10;99.90
814;DHT22;389;48.710;9.392;2023-09-19T01:39:59;18.20;99.90
814;DHT22;389;48.710;9.392;2023-09-19T01:43:00;18.20;99.90
814;DHT22;389;48.710;9.392;2023-09-19T01:48:52;18.20;99.90
814;DHT22;389;48.710;9.392;2023-09-19T01:51:34;18.20;99.90
814;DHT22;389;48.710;9.392;2023-09-19T01:54:11;18.10;99.90
814;DHT22;389;48.710;9.392;2023-09-19T01:57:01;18.20;99.90
814;DHT22;389;48.710;9.392;2023-09-19T01:59:35;18.20;99.90
814;DHT22;389;48.710;9.392;2023-09-19T02:02:04;18.40;99.90
814;DHT22;389;48.710;9.392;2023-09-19T02:04:33;18.30;99.90
814;DHT22;389;48.710;9.392;2023-09-19T02:07:00;18.40;99.90
814;DHT22;389;48.710;9.392;2023-09-19T02:09:26;18.40;99.90
814;DHT22;389;48.710;9.392;2023-09-19T02:11:52;18.30;99.90
814;DHT22;389;48.710;9.392;2023-09-19T02:14:18;18.40;99.90
814;DHT22;389;48.710;9.392;2023-09-19T02:16:46;18.50;99.90
814;DHT22;389;48.710;9.392;2023-09-19T02:19:11;18.50;99.90
814;DHT22;389;48.710;9.392;2023-09-19T02:21:37;18.50;99.90
814;DHT22;389;48.710;9.392;2023-09-19T02:24:05;18.40;99.90
814;DHT22;389;48.710;9.392;2023-09-19T02:26:32;18.40;99.90
814;DHT22;389;48.710;9.392;2023-09-19T02:29:02;18.30;99.90
814;DHT22;389;48.710;9.392;2023-09-19T02:31:30;18.40;99.90
814;DHT22;389;48.710;9.392;2023-09-19T02:33:56;18.40;99.90
814;DHT22;389;48.710;9.392;2023-09-19T02:36:22;18.40;99.90
814;DHT22;389;48.710;9.392;2023-09-19T02:38:49;18.40;99.90
814;DHT22;389;48.710;9.392;2023-09-19T02:41:14;18.40;99.90
814;DHT22;389;48.710;9.392;2023-09-19T02:43:40;18.30;99.90
814;DHT22;389;48.710;9.392;2023-09-19T02:46:06;18.30;99.90
814;DHT22;389;48.710;9.392;2023-09-19T02:48:32;18.30;99.90
814;DHT22;389;48.710;9.392;2023-09-19T02:50:59;18.30;99.90
814;DHT22;389;48.710;9.392;2023-09-19T02:53:25;18.20;99.90
814;DHT22;389;48.710;9.392;2023-09-19T02:55:51;18.20;99.90
814;DHT22;389;48.710;9.392;2023-09-19T02:58:17;18.10;99.90
814;DHT22;389;48.710;9.392;2023-09-19T03:00:43;18.00;99.90
814;DHT22;389;48.710;9.392;2023-09-19T03:03:12;17.90;99.90
814;DHT22;389;48.710;9.392;2023-09-19T03:05:38;17.80;99.90
814;DHT22;389;48.710;9.392;2023-09-19T03:08:04;17.80;99.90
814;DHT22;389;48.710;9.392;2023-09-19T03:10:30;17.70;99.90
814;DHT22;389;48.710;9.392;2023-09-19T03:12:57;17.70;99.90
814;DHT22;389;48.710;9.392;2023-09-19T03:15:22;17.60;99.90
814;DHT22;389;48.710;9.392;2023-09-19T03:17:48;17.70;99.90
814;DHT22;389;48.710;9.392;2023-09-19T03:20:15;17.60;99.90
814;DHT22;389;48.710;9.392;2023-09-19T03:22:44;17.60;99.90
814;DHT22;389;48.710;9.392;2023-09-19T03:25:10;17.60;99.90
814;DHT22;389;48.710;9.392;2023-09-19T03:27:37;17.60;99.90
814;DHT22;389;48.710;9.392;2023-09-19T03:30:04;17.60;99.90
814;DHT22;389;48.710;9.392;2023-09-19T03:32:43;17.60;99.90
814;DHT22;389;48.710;9.392;2023-09-19T03:35:08;17.60;99.90
814;DHT22;389;48.710;9.392;2023-09-19T03:37:34;17.70;99.90
814;DHT22;389;48.710;9.392;2023-09-19T03:40:00;17.70;99.90
814;DHT22;389;48.710;9.392;2023-09-19T03:42:30;17.70;99.90
814;DHT22;389;48.710;9.392;2023-09-19T03:44:56;17.80;99.90
814;DHT22;389;48.710;9.392;2023-09-19T03:47:22;17.80;99.90
814;DHT22;389;48.710;9.392;2023-09-19T03:49:47;17.90;99.90
814;DHT22;389;48.710;9.392;2023-09-19T03:52:13;17.80;99.90
814;DHT22;389;48.710;9.392;2023-09-19T03:54:40;17.80;99.90
814;DHT22;389;48.710;9.392;2023-09-19T03:57:06;17.90;99.90
814;DHT22;389;48.710;9.392;2023-09-19T03:59:32;17.90;99.90
814;DHT22;389;48.710;9.392;2023-09-19T04:01:58;18.00;99.90
814;DHT22;389;48.710;9.392;2023-09-19T04:04:23;18.10;99.90
814;DHT22;389;48.710;9.392;2023-09-19T04:06:51;17.90;99.90
814;DHT22;389;48.710;9.392;2023-09-19T04:09:16;17.90;99.90
814;DHT22;389;48.710;9.392;2023-09-19T04:11:42;17.90;99.90
814;DHT22;389;48.710;9.392;2023-09-19T04:14:07;18.00;99.90
814;DHT22;389;48.710;9.392;2023-09-19T04:16:33;18.00;99.90
814;DHT22;389;48.710;9.392;2023-09-19T04:18:59;18.00;99.90
814;DHT22;389;48.710;9.392;2023-09-19T04:21:24;18.00;99.90
814;DHT22;389;48.710;9.392;2023-09-19T04:23:50;18.00;99.90
814;DHT22;389;48.710;9.392;2023-09-19T04:26:16;17.90;99.90
814;DHT22;389;48.710;9.392;2023-09-19T04:28:42;17.90;99.90
814;DHT22;389;48.710;9.392;2023-09-19T04:31:09;18.00;99.90
814;DHT22;389;48.710;9.392;2023-09-19T04:33:37;18.00;99.90
814;DHT22;389;48.710;9.392;2023-09-19T04:36:03;18.10;99.90
814;DHT22;389;48.710;9.392;2023-09-19T04:38:35;17.90;99.90
814;DHT22;389;48.710;9.392;2023-09-19T04:41:01;17.80;99.90
814;DHT22;389;48.710;9.392;2023-09-19T04:43:26;17.90;99.90
814;DHT22;389;48.710;9.392;2023-09-19T04:45:52;17.60;99.90
814;DHT22;389;48.710;9.392;2023-09-19T04:48:22;17.60;99.90
814;DHT22;389;48.710;9.392;2023-09-19T04:50:49;17.50;99.90
814;DHT22;389;48.710;9.392;2023-09-19T04:53:16;17.50;99.90
814;DHT22;389;48.710;9.392;2023-09-19T04:55:43;17.60;99.90
814;DHT22;389;48.710;9.392;2023-09-19T04:58:08;17.40;99.90
814;DHT22;389;48.710;9.392;2023-09-19T05:00:34;17.40;99.90
814;DHT22;389;48.710;9.392;2023-09-19T05:03:00;17.40;99.90
814;DHT22;389;48.710;9.392;2023-09-19T05:05:26;17.40;99.90
814;DHT22;389;48.710;9.392;2023-09-19T05:07:52;17.50;99.90
814;DHT22;389;48.710;9.392;2023-09-19T05:10:19;17.40;99.90
814;DHT22;389;48.710;9.392;2023-09-19T05:12:45;17.40;99.90
814;DHT22;389;48.710;9.392;2023-09-19T05:15:12;17.50;99.90
814;DHT22;389;48.710;9.392;2023-09-19T05:17:40;17.60;99.90
814;DHT22;389;48.710;9.392;2023-09-19T05:20:06;17.50;99.90
814;DHT22;389;48.710;9.392;2023-09-19T05:22:43;17.50;99.90
814;DHT22;389;48.710;9.392;2023-09-19T05:25:12;17.60;99.90
814;DHT22;389;48.710;9.392;2023-09-19T05:27:45;17.60;99.90
814;DHT22;389;48.710;9.392;2023-09-19T05:30:11;17.70;99.90
814;DHT22;389;48.710;9.392;2023-09-19T05:32:39;17.70;99.90
814;DHT22;389;48.710;9.392;2023-09-19T05:35:05;17.80;99.90
814;DHT22;389;48.710;9.392;2023-09-19T05:37:35;17.90;99.90
814;DHT22;389;48.710;9.392;2023-09-19T05:40:01;17.90;99.90
814;DHT22;389;48.710;9.392;2023-09-19T05:42:27;17.90;99.90
814;DHT22;389;48.710;9.392;2023-09-19T05:44:52;18.00;99.90
814;DHT22;389;48.710;9.392;2023-09-19T05:47:18;17.90;99.90
814;DHT22;389;48.710;9.392;2023-09-19T05:49:44;18.00;99.90
814;DHT22;389;48.710;9.392;2023-09-19T05:52:09;18.00;99.90
814;DHT22;389;48.710;9.392;2023-09-19T05:54:35;18.10;99.90
814;DHT22;389;48.710;9.392;2023-09-19T05:57:01;18.00;99.90
814;DHT22;389;48.710;9.392;2023-09-19T05:59:27;18.00;99.90
814;DHT22;389;48.710;9.392;2023-09-19T06:01:53;18.00;99.90
814;DHT22;389;48.710;9.392;2023-09-19T06:04:18;18.00;99.90
814;DHT22;389;48.710;9.392;2023-09-19T06:06:45;18.10;99.90
814;DHT22;389;48.710;9.392;2023-09-19T06:09:10;18.10;99.90
814;DHT22;389;48.710;9.392;2023-09-19T06:11:36;18.10;99.90
814;DHT22;389;48.710;9.392;2023-09-19T06:14:03;18.20;99.90
814;DHT22;389;48.710;9.392;2023-09-19T06:16:29;18.20;99.90
814;DHT22;389;48.710;9.392;2023-09-19T06:18:55;18.30;99.90
814;DHT22;389;48.710;9.392;2023-09-19T06:21:22;18.30;99.90
814;DHT22;389;48.710;9.392;2023-09-19T06:23:48;18.30;99.90
814;DHT22;389;48.710;9.392;2023-09-19T06:26:13;18.30;99.90
814;DHT22;389;48.710;9.392;2023-09-19T06:28:40;18.30;99.90
814;DHT22;389;48.710;9.392;2023-09-19T06:31:06;18.40;99.90
814;DHT22;389;48.710;9.392;2023-09-19T06:33:35;18.40;99.90
814;DHT22;389;48.710;9.392;2023-09-19T06:36:04;18.20;99.90
814;DHT22;389;48.710;9.392;2023-09-19T06:38:30;18.10;99.90
814;DHT22;389;48.710;9.392;2023-09-19T06:40:56;17.90;99.90
814;DHT22;389;48.710;9.392;2023-09-19T06:43:23;17.80;99.90
814;DHT22;389;48.710;9.392;2023-09-19T06:45:49;17.80;99.90
814;DHT22;389;48.710;9.392;2023-09-19T06:48:17;17.60;99.90
814;DHT22;389;48.710;9.392;2023-09-19T06:50:43;17.50;99.90
814;DHT22;389;48.710;9.392;2023-09-19T06:53:10;17.50;99.90
814;DHT22;389;48.710;9.392;2023-09-19T06:55:35;17.40;99.90
814;DHT22;389;48.710;9.392;2023-09-19T06:58:02;17.40;99.90
814;DHT22;389;48.710;9.392;2023-09-19T07:00:28;17.40;99.90
814;DHT22;389;48.710;9.392;2023-09-19T07:03:01;17.50;99.90
814;DHT22;389;48.710;9.392;2023-09-19T07:05:32;17.50;99.90
814;DHT22;389;48.710;9.392;2023-09-19T07:08:01;17.50;99.90
814;DHT22;389;48.710;9.392;2023-09-19T07:10:27;17.60;99.90
814;DHT22;389;48.710;9.392;2023-09-19T07:13:14;17.60;99.90
814;DHT22;389;48.710;9.392;2023-09-19T07:15:43;17.70;99.90
814;DHT22;389;48.710;9.392;2023-09-19T07:18:13;17.90;99.90
814;DHT22;389;48.710;9.392;2023-09-19T07:20:40;18.10;99.90
814;DHT22;389;48.710;9.392;2023-09-19T07:23:13;18.30;99.90
814;DHT22;389;48.710;9.392;2023-09-19T07:25:43;18.30;99.90
814;DHT22;389;48.710;9.392;2023-09-19T07:28:09;18.40;99.90
814;DHT22;389;48.710;9.392;2023-09-19T07:30:36;18.50;99.90
814;DHT22;389;48.710;9.392;2023-09-19T07:33:03;18.70;99.90
814;DHT22;389;48.710;9.392;2023-09-19T07:35:30;18.70;99.90
814;DHT22;389;48.710;9.392;2023-09-19T07:37:56;19.00;99.90
814;DHT22;389;48.710;9.392;2023-09-19T07:40:24;19.00;99.90
814;DHT22;389;48.710;9.392;2023-09-19T07:42:52;19.10;99.90
814;DHT22;389;48.710;9.392;2023-09-19T07:45:18;19.30;99.90
814;DHT22;389;48.710;9.392;2023-09-19T07:47:47;19.20;99.90
814;DHT22;389;48.710;9.392;2023-09-19T07:50:14;19.30;99.90
814;DHT22;389;48.710;9.392;2023-09-19T07:52:41;19.40;99.90
814;DHT22;389;48.710;9.392;2023-09-19T07:55:08;19.40;99.90
814;DHT22;389;48.710;9.392;2023-09-19T07:57:35;19.50;99.90
814;DHT22;389;48.710;9.392;2023-09-19T08:00:01;19.60;99.90
814;DHT22;389;48.710;9.392;2023-09-19T08:02:29;19.70;99.90
814;DHT22;389;48.710;9.392;2023-09-19T08:04:55;19.70;99.90
814;DHT22;389;48.710;9.392;2023-09-19T08:07:24;19.80;99.90
814;DHT22;389;48.710;9.392;2023-09-19T08:09:49;19.90;99.90
814;DHT22;389;48.710;9.392;2023-09-19T08:12:15;19.90;99.90
814;DHT22;389;48.710;9.392;2023-09-19T08:14:40;19.90;99.90
814;DHT22;389;48.710;9.392;2023-09-19T08:17:09;20.00;99.90
814;DHT22;389;48.710;9.392;2023-09-19T08:19:34;20.00;99.90
814;DHT22;389;48.710;9.392;2023-09-19T08:22:01;20.10;99.90
814;DHT22;389;48.710;9.392;2023-09-19T08:24:29;20.10;99.90
814;DHT22;389;48.710;9.392;2023-09-19T08:26:55;20.10;99.90
814;DHT22;389;48.710;9.392;2023-09-19T08:29:22;20.10;99.90
814;DHT22;389;48.710;9.392;2023-09-19T08:31:59;20.10;99.90
814;DHT22;389;48.710;9.392;2023-09-19T08:34:25;20.20;99.90
814;DHT22;389;48.710;9.392;2023-09-19T08:36:51;20.30;99.90
814;DHT22;389;48.710;9.392;2023-09-19T08:39:18;20.40;99.90
814;DHT22;389;48.710;9.392;2023-09-19T08:41:44;20.50;99.90
814;DHT22;389;48.710;9.392;2023-09-19T08:44:10;20.70;99.90
814;DHT22;389;48.710;9.392;2023-09-19T08:46:37;20.80;99.90
814;DHT22;389;48.710;9.392;2023-09-19T08:49:06;20.90;99.80
814;DHT22;389;48.710;9.392;2023-09-19T08:51:43;21.00;99.20
814;DHT22;389;48.710;9.392;2023-09-19T08:54:20;21.20;98.80
814;DHT22;389;48.710;9.392;2023-09-19T08:56:48;21.30;98.40
814;DHT22;389;48.710;9.392;2023-09-19T08:59:15;21.40;98.20
814;DHT22;389;48.710;9.392;2023-09-19T09:01:42;21.50;97.40
814;DHT22;389;48.710;9.392;2023-09-19T09:04:11;21.60;98.20
814;DHT22;389;48.710;9.392;2023-09-19T09:06:38;21.80;97.80
814;DHT22;389;48.710;9.392;2023-09-19T09:09:05;21.70;97.10
814;DHT22;389;48.710;9.392;2023-09-19T09:11:33;21.80;97.00
814;DHT22;389;48.710;9.392;2023-09-19T09:13:59;21.70;96.40
814;DHT22;389;48.710;9.392;2023-09-19T09:16:25;21.70;96.90
814;DHT22;389;48.710;9.392;2023-09-19T09:18:51;21.80;97.20
814;DHT22;389;48.710;9.392;2023-09-19T09:21:20;21.90;96.60
814;DHT22;389;48.710;9.392;2023-09-19T09:23:47;22.00;96.10
814;DHT22;389;48.710;9.392;2023-09-19T09:26:13;22.00;95.70
814;DHT22;389;48.710;9.392;2023-09-19T09:28:45;22.10;95.60
814;DHT22;389;48.710;9.392;2023-09-19T09:31:24;22.30;95.30
814;DHT22;389;48.710;9.392;2023-09-19T09:33:54;22.40;95.10
814;DHT22;389;48.710;9.392;2023-09-19T09:36:37;22.50;94.80
814;DHT22;389;48.710;9.392;2023-09-19T09:39:03;22.70;95.20
814;DHT22;389;48.710;9.392;2023-09-19T09:41:41;22.80;94.20
814;DHT22;389;48.710;9.392;2023-09-19T09:44:16;22.90;92.80
814;DHT22;389;48.710;9.392;2023-09-19T09:46:46;23.00;92.20
814;DHT22;389;48.710;9.392;2023-09-19T09:49:26;23.10;91.50
814;DHT22;389;48.710;9.392;2023-09-19T09:52:05;23.10;92.00
814;DHT22;389;48.710;9.392;2023-09-19T09:54:58;23.10;91.60
814;DHT22;389;48.710;9.392;2023-09-19T09:57:25;23.30;91.10
814;DHT22;389;48.710;9.392;2023-09-19T09:59:57;23.40;91.30
814;DHT22;389;48.710;9.392;2023-09-19T10:02:43;23.60;90.80
814;DHT22;389;48.710;9.392;2023-09-19T10:05:20;23.60;88.60
814;DHT22;389;48.710;9.392;2023-09-19T10:07:52;23.70;86.70
814;DHT22;389;48.710;9.392;2023-09-19T10:10:34;23.60;87.50
814;DHT22;389;48.710;9.392;2023-09-19T10:13:14;23.70;87.00
814;DHT22;389;48.710;9.392;2023-09-19T10:15:46;23.80;86.30
814;DHT22;389;48.710;9.392;2023-09-19T10:18:20;24.00;86.70
814;DHT22;389;48.710;9.392;2023-09-19T10:20:46;24.10;85.70
814;DHT22;389;48.710;9.392;2023-09-19T10:23:13;24.10;84.60
814;DHT22;389;48.710;9.392;2023-09-19T10:25:43;24.10;82.20
814;DHT22;389;48.710;9.392;2023-09-19T10:28:13;24.10;81.90
814;DHT22;389;48.710;9.392;2023-09-19T10:30:48;24.00;80.90
814;DHT22;389;48.710;9.392;2023-09-19T10:33:17;23.80;81.60
814;DHT22;389;48.710;9.392;2023-09-19T10:35:45;23.80;82.60
814;DHT22;389;48.710;9.392;2023-09-19T10:38:13;23.80;81.90
814;DHT22;389;48.710;9.392;2023-09-19T10:40:40;23.90;82.60
814;DHT22;389;48.710;9.392;2023-09-19T10:43:16;24.10;81.40
814;DHT22;389;48.710;9.392;2023-09-19T10:45:49;24.20;79.10
814;DHT22;389;48.710;9.392;2023-09-19T10:48:17;24.20;78.70
814;DHT22;389;48.710;9.392;2023-09-19T10:51:10;24.20;78.70
814;DHT22;389;48.710;9.392;2023-09-19T10:53:46;24.20;78.10
814;DHT22;389;48.710;9.392;2023-09-19T10:56:20;24.20;78.70
814;DHT22;389;48.710;9.392;2023-09-19T10:58:47;24.10;78.60
814;DHT22;389;48.710;9.392;2023-09-19T11:01:14;24.20;77.60
814;DHT22;389;48.710;9.392;2023-09-19T11:03:41;24.20;76.90
814;DHT22;389;48.710;9.392;2023-09-19T11:06:18;24.00;75.80
814;DHT22;389;48.710;9.392;2023-09-19T11:09:03;23.90;77.30
814;DHT22;389;48.710;9.392;2023-09-19T11:30:39;23.70;78.70
814;DHT22;389;48.710;9.392;2023-09-19T11:36:11;23.70;78.10
814;DHT22;389;48.710;9.392;2023-09-19T11:49:16;23.70;79.50
814;DHT22;389;48.710;9.392;2023-09-19T11:51:46;23.70;79.80
814;DHT22;389;48.710;9.392;2023-09-19T11:54:13;23.70;77.40
814;DHT22;389;48.710;9.392;2023-09-19T11:56:49;23.80;77.20
814;DHT22;389;48.710;9.392;2023-09-19T12:01:53;23.80;77.20
814;DHT22;389;48.710;9.392;2023-09-19T12:04:40;23.80;77.70
814;DHT22;389;48.710;9.392;2023-09-19T12:07:15;23.80;78.60
814;DHT22;389;48.710;9.392;2023-09-19T12:10:04;23.70;77.20
814;DHT22;389;48.710;9.392;2023-09-19T12:12:31;23.80;78.60
814;DHT22;389;48.710;9.392;2023-09-19T12:14:59;23.80;78.50
814;DHT22;389;48.710;9.392;2023-09-19T12:17:37;23.80;77.60
814;DHT22;389;48.710;9.392;2023-09-19T12:20:04;23.80;77.00
814;DHT22;389;48.710;9.392;2023-09-19T12:22:45;23.80;77.60
814;DHT22;389;48.710;9.392;2023-09-19T12:25:12;23.90;78.70
814;DHT22;389;48.710;9.392;2023-09-19T12:27:49;23.90;78.10
814;DHT22;389;48.710;9.392;2023-09-19T12:30:18;23.90;78.70
814;DHT22;389;48.710;9.392;2023-09-19T12:32:44;23.90;78.30
814;DHT22;389;48.710;9.392;2023-09-19T12:35:32;23.90;77.80
814;DHT22;389;48.710;9.392;2023-09-19T12:38:04;23.90;77.40
814;DHT22;389;48.710;9.392;2023-09-19T12:40:32;23.80;77.80
814;DHT22;389;48.710;9.392;2023-09-19T12:42:59;23.80;78.60
814;DHT22;389;48.710;9.392;2023-09-19T12:45:29;23.70;78.50
814;DHT22;389;48.710;9.392;2023-09-19T12:48:22;23.70;78.00
814;DHT22;389;48.710;9.392;2023-09-19T12:51:10;23.70;79.00
814;DHT22;389;48.710;9.392;2023-09-19T12:53:42;23.70;78.60
814;DHT22;389;48.710;9.392;2023-09-19T12:56:12;23.80;79.30
814;DHT22;389;48.710;9.392;2023-09-19T12:58:58;23.80;79.10
814;DHT22;389;48.710;9.392;2023-09-19T13:01:28;23.90;79.00
814;DHT22;389;48.710;9.392;2023-09-19T13:04:17;23.90;78.00
814;DHT22;389;48.710;9.392;2023-09-19T13:06:50;23.90;78.70
814;DHT22;389;48.710;9.392;2023-09-19T13:09:17;24.00;78.30
814;DHT22;389;48.710;9.392;2023-09-19T13:11:43;24.00;77.40
814;DHT22;389;48.710;9.392;2023-09-19T13:14:21;24.10;78.60
814;DHT22;389;48.710;9.392;2023-09-19T13:17:06;24.10;78.10
814;DHT22;389;48.710;9.392;2023-09-19T13:19:43;24.10;78.00
814;DHT22;389;48.710;9.392;2023-09-19T13:22:43;24.20;79.10
814;DHT22;389;48.710;9.392;2023-09-19T13:25:15;24.20;77.90
814;DHT22;389;48.710;9.392;2023-09-19T13:28:04;24.20;77.90
814;DHT22;389;48.710;9.392;2023-09-19T13:30:30;24.30;77.90
814;DHT22;389;48.710;9.392;2023-09-19T13:33:08;24.30;77.80
814;DHT22;389;48.710;9.392;2023-09-19T13:35:35;24.40;76.90
814;DHT22;389;48.710;9.392;2023-09-19T13:38:02;24.50;76.70
814;DHT22;389;48.710;9.392;2023-09-19T13:40:29;24.60;76.70
814;DHT22;389;48.710;9.392;2023-09-19T13:42:56;24.60;75.60
814;DHT22;389;48.710;9.392;2023-09-19T13:45:22;24.70;75.60
814;DHT22;389;48.710;9.392;2023-09-19T13:47:50;24.80;75.70
814;DHT22;389;48.710;9.392;2023-09-19T13:50:15;24.80;75.90
814;DHT22;389;48.710;9.392;2023-09-19T13:52:42;24.80;75.00
814;DHT22;389;48.710;9.392;2023-09-19T13:55:08;24.80;76.20
814;DHT22;389;48.710;9.392;2023-09-19T13:57:34;24.80;76.40
814;DHT22;389;48.710;9.392;2023-09-19T13:59:59;24.80;76.20
814;DHT22;389;48.710;9.392;2023-09-19T14:02:25;24.80;76.90
814;DHT22;389;48.710;9.392;2023-09-19T14:04:52;24.70;75.50
814;DHT22;389;48.710;9.392;2023-09-19T14:07:18;24.70;74.40
814;DHT22;389;48.710;9.392;2023-09-19T14:09:58;24.60;74.80
814;DHT22;389;48.710;9.392;2023-09-19T14:12:24;24.60;75.60
814;DHT22;389;48.710;9.392;2023-09-19T14:14:49;24.60;76.30
814;DHT22;389;48.710;9.392;2023-09-19T14:17:16;24.60;76.20
814;DHT22;389;48.710;9.392;2023-09-19T14:19:42;24.60;75.40
814;DHT22;389;48.710;9.392;2023-09-19T14:22:09;24.60;73.80
814;DHT22;389;48.710;9.392;2023-09-19T14:24:35;24.70;74.80
814;DHT22;389;48.710;9.392;2023-09-19T14:27:01;24.70;72.10
814;DHT22;389;48.710;9.392;2023-09-19T14:29:30;24.80;72.90
814;DHT22;389;48.710;9.392;2023-09-19T14:31:55;24.80;71.40
814;DHT22;389;48.710;9.392;2023-09-19T14:34:23;24.90;70.10
814;DHT22;389;48.710;9.392;2023-09-19T14:36:48;25.00;70.50
814;DHT22;389;48.710;9.392;2023-09-19T14:39:14;25.00;69.30
814;DHT22;389;48.710;9.392;2023-09-19T14:41:39;25.10;69.60
814;DHT22;389;48.710;9.392;2023-09-19T14:44:05;25.00;69.50
814;DHT22;389;48.710;9.392;2023-09-19T14:46:31;25.00;69.50
814;DHT22;389;48.710;9.392;2023-09-19T14:48:56;25.00;70.20
814;DHT22;389;48.710;9.392;2023-09-19T14:51:29;25.00;70.70
814;DHT22;389;48.710;9.392;2023-09-19T14:53:55;25.00;70.10
814;DHT22;389;48.710;9.392;2023-09-19T14:56:22;25.10;70.40
814;DHT22;389;48.710;9.392;2023-09-19T14:58:49;25.10;69.00
814;DHT22;389;48.710;9.392;2023-09-19T15:01:14;25.10;69.40
814;DHT22;389;48.710;9.392;2023-09-19T15:03:41;25.20;70.30
814;DHT22;389;48.710;9.392;2023-09-19T15:06:09;25.30;70.10
814;DHT22;389;48.710;9.392;2023-09-19T15:08:36;25.30;70.30
814;DHT22;389;48.710;9.392;2023-09-19T15:11:04;25.30;70.60
814;DHT22;389;48.710;9.392;2023-09-19T15:13:31;25.40;70.10
814;DHT22;389;48.710;9.392;2023-09-19T15:16:05;25.30;70.10
814;DHT22;389;48.710;9.392;2023-09-19T15:18:35;25.30;70.10
814;DHT22;389;48.710;9.392;2023-09-19T15:21:06;25.30;69.80
814;DHT22;389;48.710;9.392;2023-09-19T15:23:33;25.20;70.20
814;DHT22;389;48.710;9.392;2023-09-19T15:26:03;25.20;69.60
814;DHT22;389;48.710;9.392;2023-09-19T15:28:29;25.20;70.50
814;DHT22;389;48.710;9.392;2023-09-19T15:31:08;25.10;71.00
814;DHT22;389;48.710;9.392;2023-09-19T15:33:34;25.00;70.00
814;DHT22;389;48.710;9.392;2023-09-19T15:36:11;25.00;70.00
814;DHT22;389;48.710;9.392;2023-09-19T15:38:56;25.00;70.90
814;DHT22;389;48.710;9.392;2023-09-19T15:41:36;25.00;71.20
814;DHT22;389;48.710;9.392;2023-09-19T15:44:03;25.00;71.50
814;DHT22;389;48.710;9.392;2023-09-19T15:46:33;24.90;71.60
814;DHT22;389;48.710;9.392;2023-09-19T15:49:01;24.90;71.90
814;DHT22;389;48.710;9.392;2023-09-19T15:51:27;24.90;71.50
814;DHT22;389;48.710;9.392;2023-09-19T15:53:54;24.90;71.00
814;DHT22;389;48.710;9.392;2023-09-19T15:56:22;24.80;71.30
814;DHT22;389;48.710;9.392;2023-09-19T15:58:52;24.80;72.00
814;DHT22;389;48.710;9.392;2023-09-19T16:01:19;24.80;72.00
814;DHT22;389;48.710;9.392;2023-09-19T16:03:48;24.70;70.80
814;DHT22;389;48.710;9.392;2023-09-19T16:06:17;24.70;71.10
814;DHT22;389;48.710;9.392;2023-09-19T16:08:47;24.60;71.20
814;DHT22;389;48.710;9.392;2023-09-19T16:11:13;24.60;71.20
814;DHT22;389;48.710;9.392;2023-09-19T16:13:41;24.60;71.40
814;DHT22;389;48.710;9.392;2023-09-19T16:16:10;24.60;71.70
814;DHT22;389;48.710;9.392;2023-09-19T16:18:40;24.50;71.30
814;DHT22;389;48.710;9.392;2023-09-19T16:21:08;24.50;71.60
814;DHT22;389;48.710;9.392;2023-09-19T16:23:34;24.40;71.00
814;DHT22;389;48.710;9.392;2023-09-19T16:26:09;24.40;71.80
814;DHT22;389;48.710;9.392;2023-09-19T16:28:38;24.30;71.90
814;DHT22;389;48.710;9.392;2023-09-19T16:31:04;24.20;71.70
814;DHT22;389;48.710;9.392;2023-09-19T16:33:41;24.10;72.30
814;DHT22;389;48.710;9.392;2023-09-19T16:36:08;24.10;72.60
814;DHT22;389;48.710;9.392;2023-09-19T16:38:34;24.00;72.10
814;DHT22;389;48.710;9.392;2023-09-19T16:41:00;23.90;72.60
814;DHT22;389;48.710;9.392;2023-09-19T16:43:27;23.80;73.20
814;DHT22;389;48.710;9.392;2023-09-19T16:46:03;23.90;73.60
814;DHT22;389;48.710;9.392;2023-09-19T16:48:30;23.80;74.00
814;DHT22;389;48.710;9.392;2023-09-19T16:51:01;23.70;73.90
814;DHT22;389;48.710;9.392;2023-09-19T16:53:30;23.70;73.90
814;DHT22;389;48.710;9.392;2023-09-19T16:56:01;23.60;73.90
814;DHT22;389;48.710;9.392;2023-09-19T16:58:27;23.50;74.30
814;DHT22;389;48.710;9.392;2023-09-19T17:00:52;23.50;74.70
814;DHT22;389;48.710;9.392;2023-09-19T17:03:21;23.40;74.70
814;DHT22;389;48.710;9.392;2023-09-19T17:05:49;23.30;75.30
814;DHT22;389;48.710;9.392;2023-09-19T17:08:14;23.20;75.60
814;DHT22;389;48.710;9.392;2023-09-19T17:10:40;23.10;76.50
814;DHT22;389;48.710;9.392;2023-09-19T17:13:09;23.00;76.00
814;DHT22;389;48.710;9.392;2023-09-19T17:15:37;22.90;76.40
814;DHT22;389;48.710;9.392;2023-09-19T17:18:02;22.70;77.40
814;DHT22;389;48.710;9.392;2023-09-19T17:20:29;22.60;77.60
814;DHT22;389;48.710;9.392;2023-09-19T17:22:54;22.50;77.90
814;DHT22;389;48.710;9.392;2023-09-19T17:25:21;22.40;78.20
814;DHT22;389;48.710;9.392;2023-09-19T17:27:48;22.30;79.70
814;DHT22;389;48.710;9.392;2023-09-19T17:30:14;22.20;79.10
814;DHT22;389;48.710;9.392;2023-09-19T17:32:44;22.10;79.30
814;DHT22;389;48.710;9.392;2023-09-19T17:35:13;22.00;79.80
814;DHT22;389;48.710;9.392;2023-09-19T17:37:44;21.90;80.80
814;DHT22;389;48.710;9.392;2023-09-19T17:40:10;21.70;81.40